createdAt,value
2023-12-29T00:03:47.545Z,0.43
2023-12-29T00:08:51.839Z,0.80
2023-12-29T00:18:58.302Z,0.40
2023-12-29T00:24:01.878Z,0.57
2023-12-29T00:29:07.410Z,0.40
2023-12-29T00:34:11.022Z,0.40
2023-12-29T00:39:14.310Z,0.88
2023-12-29T00:44:17.092Z,0.57
2023-12-29T00:49:20.560Z,0.73
2023-12-29T00:54:24.493Z,0.80
2023-12-29T01:04:31.386Z,0.75
2023-12-29T01:09:39.851Z,0.60
2023-12-29T01:14:42.703Z,0.80
2023-12-29T01:19:46.463Z,0.70
2023-12-29T01:24:49.691Z,0.77
2023-12-29T01:29:54.082Z,0.70
2023-12-29T01:34:56.980Z,0.73
2023-12-29T01:40:01.542Z,0.60
2023-12-29T01:45:05.041Z,0.95
2023-12-29T01:50:08.592Z,1.50
2023-12-29T01:55:14.391Z,2.67
2023-12-29T02:00:18.781Z,1.70
2023-12-29T02:05:26.319Z,1.10
2023-12-29T02:10:29.968Z,0.80
2023-12-29T02:15:32.911Z,0.70
2023-12-29T02:20:36.185Z,0.60
2023-12-29T02:25:39.821Z,0.90
2023-12-29T02:31:08.002Z,0.70
2023-12-29T02:36:13.984Z,0.80
2023-12-29T02:41:17.178Z,0.90
2023-12-29T02:46:20.346Z,0.43
2023-12-29T02:51:23.286Z,0.50
2023-12-29T02:56:25.984Z,0.55
2023-12-29T03:01:30.510Z,1.27
2023-12-29T03:06:33.514Z,0.88
2023-12-29T03:11:37.294Z,0.85
2023-12-29T03:16:40.113Z,1.13
2023-12-29T03:21:43.340Z,1.38
2023-12-29T03:26:46.509Z,1.17
2023-12-29T03:31:50.292Z,1.40
2023-12-29T03:36:53.321Z,3.60
2023-12-29T03:41:56.562Z,4.10
2023-12-29T03:47:00.558Z,4.05
2023-12-29T03:52:03.905Z,3.42
2023-12-29T03:57:06.795Z,3.90
2023-12-29T04:02:11.137Z,3.28
2023-12-29T04:07:14.523Z,3.25
2023-12-29T04:12:18.773Z,2.70
2023-12-29T04:17:21.578Z,4.10
2023-12-29T04:22:24.833Z,3.30
2023-12-29T04:27:27.734Z,3.53
2023-12-29T04:32:31.676Z,2.88
2023-12-29T04:37:34.499Z,2.92
2023-12-29T04:42:38.148Z,2.40
2023-12-29T04:47:40.944Z,2.55
2023-12-29T04:52:44.051Z,2.22
2023-12-29T04:57:46.946Z,2.78
2023-12-29T05:02:50.268Z,3.20
2023-12-29T05:07:53.011Z,2.80
2023-12-29T05:12:56.071Z,3.58
2023-12-29T05:17:59.278Z,2.30
2023-12-29T05:23:02.590Z,2.08
2023-12-29T05:28:05.752Z,3.30
2023-12-29T05:33:10.358Z,2.42
2023-12-29T05:38:13.171Z,3.75
2023-12-29T05:43:20.413Z,3.20
2023-12-29T05:48:23.323Z,3.15
2023-12-29T05:53:26.618Z,3.25
2023-12-29T05:58:29.545Z,3.20
2023-12-29T06:03:32.802Z,4.28
2023-12-29T06:08:35.757Z,3.70
2023-12-29T06:13:39.811Z,3.47
2023-12-29T06:18:43.077Z,3.72
2023-12-29T06:23:47.949Z,4.03
2023-12-29T06:33:55.481Z,4.10
2023-12-29T06:39:01.984Z,3.92
2023-12-29T06:44:05.397Z,3.78
2023-12-29T06:49:10.615Z,3.78
2023-12-29T06:54:14.493Z,3.92
2023-12-29T06:59:17.866Z,2.75
2023-12-29T07:04:22.086Z,3.05
2023-12-29T07:09:25.049Z,3.47
2023-12-29T07:14:28.509Z,3.97
2023-12-29T07:19:39.173Z,3.70
2023-12-29T07:24:42.408Z,3.20
2023-12-29T07:29:45.387Z,3.03
2023-12-29T07:34:51.008Z,3.13
2023-12-29T07:39:54.203Z,3.13
2023-12-29T07:44:58.007Z,2.85
2023-12-29T07:50:00.944Z,2.80
2023-12-29T07:55:04.463Z,3.13
2023-12-29T08:00:08.146Z,2.72
2023-12-29T08:05:20.628Z,2.97
2023-12-29T08:10:23.601Z,2.67
2023-12-29T08:15:26.894Z,2.50
2023-12-29T08:20:30.208Z,2.92
2023-12-29T08:26:38.233Z,3.08
2023-12-29T08:31:41.115Z,3.05
2023-12-29T08:36:44.427Z,3.42
2023-12-29T08:41:48.873Z,4.60
2023-12-29T08:46:52.394Z,3.50
2023-12-29T08:51:55.227Z,3.83
2023-12-29T08:56:58.259Z,3.17
2023-12-29T09:02:01.866Z,2.85
2023-12-29T09:07:07.575Z,3.17
2023-12-29T09:12:10.682Z,3.22
2023-12-29T09:17:13.979Z,2.90
2023-12-29T09:22:16.961Z,2.85
2023-12-29T09:27:20.405Z,2.85
2023-12-29T09:32:23.291Z,3.10
2023-12-29T09:37:26.553Z,3.05
2023-12-29T09:42:30.899Z,2.88
2023-12-29T09:47:37.450Z,2.58
2023-12-29T09:52:44.583Z,2.55
2023-12-29T09:57:50.579Z,2.20
2023-12-29T10:02:54.846Z,2.95
2023-12-29T10:08:04.055Z,1.92
2023-12-29T10:13:10.171Z,2.45
2023-12-29T10:18:29.187Z,2.47
2023-12-29T10:24:06.402Z,2.28
2023-12-29T10:29:10.363Z,2.50
2023-12-29T10:34:21.252Z,2.17
2023-12-29T10:39:30.389Z,2.00
2023-12-29T10:44:33.705Z,1.77
2023-12-29T10:49:37.184Z,2.03
2023-12-29T10:54:40.131Z,1.95
2023-12-29T10:59:43.776Z,1.92
2023-12-29T11:04:46.642Z,2.30
2023-12-29T11:09:50.324Z,1.92
2023-12-29T11:14:58.120Z,2.08
2023-12-29T11:20:06.871Z,2.30
2023-12-29T11:25:11.101Z,2.30
2023-12-29T11:30:16.797Z,3.28
2023-12-29T11:36:12.091Z,1.88
2023-12-29T11:41:35.219Z,2.15
2023-12-29T11:46:40.587Z,2.10
2023-12-29T11:51:45.325Z,2.47
2023-12-29T11:56:49.365Z,2.03
2023-12-29T12:01:53.539Z,2.65
2023-12-29T12:06:56.433Z,3.17
2023-12-29T12:11:59.613Z,3.35
2023-12-29T12:17:03.104Z,2.60
2023-12-29T12:22:09.705Z,2.70
2023-12-29T12:27:13.243Z,3.00
2023-12-29T12:32:18.062Z,2.50
2023-12-29T12:37:22.757Z,2.95
2023-12-29T12:42:26.108Z,2.55
2023-12-29T12:47:36.361Z,3.28
2023-12-29T12:52:40.044Z,3.08
2023-12-29T12:57:43.168Z,3.38
2023-12-29T13:02:48.032Z,3.15
2023-12-29T13:07:51.028Z,3.13
2023-12-29T13:12:55.911Z,3.15
2023-12-29T13:17:58.962Z,3.38
2023-12-29T13:23:02.720Z,3.50
2023-12-29T13:28:07.093Z,3.35
2023-12-29T13:38:26.829Z,3.65
2023-12-29T13:43:33.968Z,3.65
2023-12-29T13:48:37.276Z,3.47
2023-12-29T13:53:40.704Z,3.58
2023-12-29T13:58:43.606Z,4.15
2023-12-29T14:04:06.306Z,4.53
2023-12-29T14:09:17.942Z,4.25
2023-12-29T14:14:28.533Z,3.85
2023-12-29T14:24:41.832Z,3.97
2023-12-29T14:29:45.064Z,4.20
2023-12-29T14:34:54.561Z,4.78
2023-12-29T14:39:57.461Z,4.45
2023-12-29T14:45:00.582Z,4.75
2023-12-29T14:50:03.863Z,4.30
2023-12-29T14:55:08.006Z,4.80
2023-12-29T15:00:12.017Z,4.30
2023-12-29T15:05:14.973Z,4.90
2023-12-29T15:10:17.878Z,6.93
2023-12-29T15:15:22.032Z,4.88
2023-12-29T15:20:24.826Z,5.53
2023-12-29T15:25:28.798Z,6.10
2023-12-29T15:30:31.718Z,5.10
2023-12-29T15:35:34.765Z,4.95
2023-12-29T15:40:38.032Z,4.63
2023-12-29T15:45:42.269Z,4.82
2023-12-29T15:50:46.493Z,4.50
2023-12-29T15:55:49.737Z,4.82
2023-12-29T16:00:52.645Z,4.70
2023-12-29T16:05:56.697Z,4.38
2023-12-29T16:10:59.568Z,4.32
2023-12-29T16:16:05.231Z,4.72
2023-12-29T16:21:08.230Z,4.18
2023-12-29T16:26:12.112Z,4.18
2023-12-29T16:31:15.196Z,4.45
2023-12-29T16:36:19.380Z,4.40
2023-12-29T16:41:23.009Z,5.38
2023-12-29T16:46:26.363Z,4.60
2023-12-29T16:51:29.409Z,4.53
2023-12-29T16:56:32.888Z,5.13
2023-12-29T17:01:35.906Z,5.13
2023-12-29T17:06:39.661Z,5.82
2023-12-29T17:11:46.872Z,4.68
2023-12-29T17:16:58.821Z,5.70
2023-12-29T17:22:03.065Z,5.18
2023-12-29T17:27:08.762Z,4.60
2023-12-29T17:32:11.614Z,4.75
2023-12-29T17:37:14.636Z,4.47
2023-12-29T17:42:17.631Z,4.43
2023-12-29T17:47:22.753Z,5.15
2023-12-29T17:52:25.825Z,3.92
2023-12-29T17:57:29.186Z,4.82
2023-12-29T18:02:33.540Z,4.88
2023-12-29T18:07:36.742Z,5.55
2023-12-29T18:12:40.290Z,5.85
2023-12-29T18:17:43.850Z,5.35
2023-12-29T18:22:46.965Z,5.65
2023-12-29T18:27:50.016Z,6.28
2023-12-29T18:32:53.204Z,5.70
2023-12-29T18:37:56.050Z,7.13
2023-12-29T18:43:00.310Z,6.32
2023-12-29T18:48:03.510Z,5.75
2023-12-29T18:53:09.199Z,6.45
2023-12-29T18:58:12.975Z,5.50
2023-12-29T19:03:17.790Z,5.43
2023-12-29T19:08:20.526Z,5.03
2023-12-29T19:13:23.855Z,5.07
2023-12-29T19:18:26.692Z,4.95
2023-12-29T19:23:29.942Z,5.18
2023-12-29T19:28:32.843Z,4.95
2023-12-29T19:33:36.013Z,4.78
2023-12-29T19:38:44.013Z,4.88
2023-12-29T19:43:47.883Z,5.45
2023-12-29T19:48:51.921Z,4.38
2023-12-29T19:53:56.769Z,4.88
2023-12-29T19:58:59.944Z,4.75
2023-12-29T20:04:04.043Z,4.25
2023-12-29T20:09:08.744Z,4.45
2023-12-29T20:14:13.815Z,4.90
2023-12-29T20:19:17.032Z,4.45
2023-12-29T20:24:20.554Z,5.65
2023-12-29T20:29:24.598Z,4.57
2023-12-29T20:34:27.804Z,4.72
2023-12-29T20:39:30.775Z,4.78
2023-12-29T20:44:34.328Z,4.80
2023-12-29T20:49:37.358Z,5.00
2023-12-29T20:54:41.051Z,5.50
2023-12-29T20:59:44.053Z,4.95
2023-12-29T21:04:47.570Z,4.80
2023-12-29T21:09:51.130Z,4.78
2023-12-29T21:14:57.107Z,5.38
2023-12-29T21:20:00.129Z,5.03
2023-12-29T21:25:04.797Z,5.13
2023-12-29T21:35:12.884Z,5.00
2023-12-29T21:40:16.021Z,4.70
2023-12-29T21:45:20.942Z,5.30
2023-12-29T21:50:25.160Z,5.15
2023-12-29T21:55:28.647Z,5.15
2023-12-29T22:00:32.021Z,5.20
2023-12-29T22:05:35.788Z,5.45
2023-12-29T22:10:38.877Z,5.43
2023-12-29T22:15:42.912Z,5.00
2023-12-29T22:20:45.804Z,5.75
2023-12-29T22:25:49.252Z,5.65
2023-12-29T22:30:52.171Z,5.93
2023-12-29T22:35:55.405Z,5.40
2023-12-29T22:40:59.128Z,5.15
2023-12-29T22:46:03.980Z,5.90
2023-12-29T22:51:08.078Z,6.00
2023-12-29T22:56:11.200Z,5.95
2023-12-29T23:01:14.756Z,6.22
2023-12-29T23:06:18.697Z,6.18
2023-12-29T23:11:21.558Z,5.95
2023-12-29T23:16:24.643Z,6.05
2023-12-29T23:21:27.750Z,6.13
2023-12-29T23:26:30.897Z,5.45
2023-12-29T23:31:34.465Z,4.90
2023-12-29T23:36:38.577Z,4.80
2023-12-29T23:41:41.781Z,4.63
2023-12-29T23:46:45.172Z,4.43
2023-12-29T23:51:49.122Z,4.57
2023-12-29T23:56:53.392Z,3.70
